Miflin, Alabama
Current Conditions -  °F | °C
As of 7:35 PM on Wednesday 26 Nov 2014 (Local Time) from KJKA Reporting Station
Clear Clear  
Wind Chill: 50°   Ceiling: Unl
Heat Index: 50°   Visibility: 10mi
Dew Point: 42°   Wind: 3mph
Humidity: 74%   Direction: 240°WSW
Pressure: 30.2"   Gusts: NA
Location:  30.4162°N, 87.5594°W
Report Text: KJKA 270135Z AUTO 24003KT 10SM CLR 10/06 A3020 RMK AO2 T01000055
Loading
Personal Weather Stations






























Interactive Weather Map New forecast layout! Learn more

10-Day Weather Forecast

Advertisements
Track Severe Weather on mobile